Map

Track Data

SID SEASON NUMBER BASIN SUBBASIN NAME ISO_TIME NATURE LAT LON WMO_WIND WMO_PRES WMO_AGENCY TRACK_TYPE DIST2LAND LANDFALL IFLAG USA_AGENCY USA_ATCF_ID USA_LAT USA_LON USA_RECORD USA_STATUS USA_WIND USA_PRES USA_SSHS USA_R34_NE USA_R34_SE USA_R34_SW USA_R34_NW USA_R50_NE USA_R50_SE USA_R50_SW USA_R50_NW USA_R64_NE USA_R64_SE USA_R64_SW USA_R64_NW USA_POCI USA_ROCI USA_RMW USA_EYE TOKYO_LAT TOKYO_LON TOKYO_GRADE TOKYO_WIND TOKYO_PRES TOKYO_R50_DIR TOKYO_R50_LONG TOKYO_R50_SHORT TOKYO_R30_DIR TOKYO_R30_LONG TOKYO_R30_SHORT TOKYO_LAND CMA_LAT CMA_LON CMA_CAT CMA_WIND CMA_PRES HKO_LAT HKO_LON HKO_CAT HKO_WIND HKO_PRES NEWDELHI_LAT NEWDELHI_LON NEWDELHI_GRADE NEWDELHI_WIND NEWDELHI_PRES NEWDELHI_CI NEWDELHI_DP NEWDELHI_POCI REUNION_LAT REUNION_LON REUNION_TYPE REUNION_WIND REUNION_PRES REUNION_TNUM REUNION_CI REUNION_RMW REUNION_R34_NE REUNION_R34_SE REUNION_R34_SW REUNION_R34_NW REUNION_R50_NE REUNION_R50_SE REUNION_R50_SW REUNION_R50_NW REUNION_R64_NE REUNION_R64_SE REUNION_R64_SW REUNION_R64_NW BOM_LAT BOM_LON BOM_TYPE BOM_WIND BOM_PRES BOM_TNUM BOM_CI BOM_RMW BOM_R34_NE BOM_R34_SE BOM_R34_SW BOM_R34_NW BOM_R50_NE BOM_R50_SE BOM_R50_SW BOM_R50_NW BOM_R64_NE BOM_R64_SE BOM_R64_SW BOM_R64_NW BOM_ROCI BOM_POCI BOM_EYE BOM_POS_METHOD BOM_PRES_METHOD NADI_LAT NADI_LON NADI_CAT NADI_WIND NADI_PRES WELLINGTON_LAT WELLINGTON_LON WELLINGTON_WIND WELLINGTON_PRES DS824_LAT DS824_LON DS824_STAGE DS824_WIND DS824_PRES TD9636_LAT TD9636_LON TD9636_STAGE TD9636_WIND TD9636_PRES TD9635_LAT TD9635_LON TD9635_WIND TD9635_PRES TD9635_ROCI NEUMANN_LAT NEUMANN_LON NEUMANN_CLASS NEUMANN_WIND NEUMANN_PRES MLC_LAT MLC_LON MLC_CLASS MLC_WIND MLC_PRES USA_GUST BOM_GUST BOM_GUST_PER REUNION_GUST REUNION_GUST_PER USA_SEAHGT USA_SEARAD_NE USA_SEARAD_SE USA_SEARAD_SW USA_SEARAD_NW STORM_SPEED STORM_DIR
1967303S10071 1968 131 SI MM ANITA 1967-10-30 06:00:00 TS -10.0000 71.0000 reunion main 1819 1793 _____O______O_ -1 -10.0000 71.0000 2 9.90000 -10.0000 71.0000 TC 25 9 279
1967303S10071 1968 131 SI MM ANITA 1967-10-30 09:00:00 TS -9.92762 70.5449 main 1785 1752 _____P______P_ -1 -9.92762 70.5449 2 -9.92762 70.5449 TC 25 9 276
1967303S10071 1968 131 SI MM ANITA 1967-10-30 12:00:00 TS -9.90000 70.1000 reunion main 1752 1720 _____O______O_ -1 -9.90000 70.1000 99 9.90000 -9.90000 70.1000 TC 25 9 269
1967303S10071 1968 131 SI MM ANITA 1967-10-30 15:00:00 TS -9.94247 69.6776 main 1720 1680 _____P______P_ -1 -9.94247 69.6776 99 -9.94247 69.6776 TC 27 8 263
1967303S10071 1968 131 SI MM ANITA 1967-10-30 18:00:00 TS -10.0000 69.3000 reunion main 1680 1657 _____O______O_ -1 -10.0000 69.3000 99 9.90000 -10.0000 69.3000 TC 30 7 266
1967303S10071 1968 131 SI MM ANITA 1967-10-30 21:00:00 TS -9.99241 68.9924 main 1657 1633 _____P______P_ -1 -9.99241 68.9924 99 -9.99241 68.9924 TC 30 6 270
1967303S10071 1968 131 SI MM ANITA 1967-10-31 00:00:00 TS -10.0000 68.7000 reunion main 1633 1602 _____O______O_ -1 -10.0000 68.7000 99 9.90000 -10.0000 68.7000 TC 30 6 260
1967303S10071 1968 131 SI MM ANITA 1967-10-31 03:00:00 TS -10.1000 68.3651 main 1602 1564 _____P______P_ -1 -10.1000 68.3651 99 -10.1000 68.3651 TC 32 7 254
1967303S10071 1968 131 SI MM ANITA 1967-10-31 06:00:00 TS -10.2000 68.0000 reunion main 1564 1534 _____O______O_ -1 -10.2000 68.0000 3 9.90000 -10.2000 68.0000 TC 35 8 261
1967303S10071 1968 131 SI MM ANITA 1967-10-31 09:00:00 TS -10.2150 67.5999 main 1534 1505 _____P______P_ -1 -10.2150 67.5999 3 -10.2150 67.5999 TC 37 8 270
1967303S10071 1968 131 SI MM ANITA 1967-10-31 12:00:00 TS -10.2000 67.2000 reunion main 1505 1483 _____O______O_ -1 -10.2000 67.2000 99 9.90000 -10.2000 67.2000 TC 40 7 270
1967303S10071 1968 131 SI MM ANITA 1967-10-31 15:00:00 TS -10.2149 66.8425 main 1476 1455 _____P______P_ -1 -10.2149 66.8425 99 -10.2149 66.8425 TC 40 7 270
1967303S10071 1968 131 SI MM ANITA 1967-10-31 18:00:00 TS -10.2000 66.5000 reunion main 1455 1441 _____O______O_ -1 -10.2000 66.5000 99 9.90000 -10.2000 66.5000 TC 40 7 278
1967303S10071 1968 131 SI MM ANITA 1967-10-31 21:00:00 TS -10.1149 66.1575 main 1443 1425 _____P______P_ -1 -10.1149 66.1575 99 -10.1149 66.1575 TC 40 7 286
1967303S10071 1968 131 SI MM ANITA 1967-11-01 00:00:00 TS -10.0000 65.8000 reunion main 1425 1409 _____O______O_ -1 -10.0000 65.8000 99 9.90000 -10.0000 65.8000 TC 40 8 287
1967303S10071 1968 131 SI MM ANITA 1967-11-01 03:00:00 TS -9.89248 65.4075 main 1409 1393 _____P______P_ -1 -9.89248 65.4075 99 -9.89248 65.4075 TC 37 8 284
1967303S10071 1968 131 SI MM ANITA 1967-11-01 06:00:00 TS -9.80000 65.0000 reunion main 1393 1379 _____O______O_ -1 -9.80000 65.0000 3 9.90000 -9.80000 65.0000 TC 35 8 283
1967303S10071 1968 131 SI MM ANITA 1967-11-01 09:00:00 TS -9.71250 64.5849 main 1379 1357 _____P______P_ -1 -9.71250 64.5849 3 -9.71250 64.5849 TC 35 8 277
1967303S10071 1968 131 SI MM ANITA 1967-11-01 12:00:00 TS -9.70000 64.2000 reunion main 1357 1331 _____O______O_ -1 -9.70000 64.2000 99 9.90000 -9.70000 64.2000 TC 35 7 260
1967303S10071 1968 131 SI MM ANITA 1967-11-01 15:00:00 TS -9.83491 63.8926 main 1331 1295 _____P______P_ -1 -9.83491 63.8926 99 -9.83491 63.8926 TC 35 7 243
1967303S10071 1968 131 SI MM ANITA 1967-11-01 18:00:00 TS -10.0000 63.6000 reunion main 1295 1270 _____O______O_ -1 -10.0000 63.6000 99 9.90000 -10.0000 63.6000 TC 35 7 249
1967303S10071 1968 131 SI MM ANITA 1967-11-01 21:00:00 TS -10.0800 63.2575 main 1270 1250 _____P______P_ -1 -10.0800 63.2575 99 -10.0800 63.2575 TC 32 7 262
1967303S10071 1968 131 SI MM ANITA 1967-11-02 00:00:00 TS -10.1000 62.9000 reunion main 1250 1236 _____O______O_ -1 -10.1000 62.9000 99 9.90000 -10.1000 62.9000 TC 30 7 271
1967303S10071 1968 131 SI MM ANITA 1967-11-02 03:00:00 TS -10.0651 62.5475 main 1232 1229 _____P______P_ -1 -10.0651 62.5475 99 -10.0651 62.5475 TC 27 7 278
1967303S10071 1968 131 SI MM ANITA 1967-11-02 06:00:00 TS -10.0000 62.2000 reunion main 1229 _____O______O_ -1 -10.0000 62.2000 6 9.90000 -10.0000 62.2000 TC 25 7 281

About IBTrACS Database

This database is a web-friendly format of International Best Track Archive for Climate Stewardship (IBTrACS), a global best track data archive curated by NOAA dating back to 1842.

Updated: 2021-10-21